sensor_id;sensor_type;location;lat;lon;timestamp;P1;durP1;ratioP1;P2;durP2;ratioP2
12228;SDS011;6177;52.402;9.800;2023-08-24T00:00:08;2.75;;;2.30;;
12228;SDS011;6177;52.402;9.800;2023-08-24T00:03:00;2.70;;;2.50;;
12228;SDS011;6177;52.402;9.800;2023-08-24T00:05:50;2.97;;;2.78;;
12228;SDS011;6177;52.402;9.800;2023-08-24T00:08:41;2.67;;;2.58;;
12228;SDS011;6177;52.402;9.800;2023-08-24T00:11:32;3.28;;;2.67;;
12228;SDS011;6177;52.402;9.800;2023-08-24T00:14:23;3.03;;;2.63;;
12228;SDS011;6177;52.402;9.800;2023-08-24T00:17:14;4.07;;;2.80;;
12228;SDS011;6177;52.402;9.800;2023-08-24T00:20:06;2.72;;;2.63;;
12228;SDS011;6177;52.402;9.800;2023-08-24T00:23:00;2.35;;;2.25;;
12228;SDS011;6177;52.402;9.800;2023-08-24T00:25:51;3.83;;;2.90;;
12228;SDS011;6177;52.402;9.800;2023-08-24T00:28:41;4.13;;;2.53;;
12228;SDS011;6177;52.402;9.800;2023-08-24T00:31:32;2.88;;;2.78;;
12228;SDS011;6177;52.402;9.800;2023-08-24T00:34:23;2.70;;;2.50;;
12228;SDS011;6177;52.402;9.800;2023-08-24T00:37:14;3.08;;;2.75;;
12228;SDS011;6177;52.402;9.800;2023-08-24T00:40:06;2.78;;;2.58;;
12228;SDS011;6177;52.402;9.800;2023-08-24T00:43:00;3.25;;;2.83;;
12228;SDS011;6177;52.402;9.800;2023-08-24T00:45:53;7.13;;;2.75;;
12228;SDS011;6177;52.402;9.800;2023-08-24T00:48:45;3.00;;;2.90;;
12228;SDS011;6177;52.402;9.800;2023-08-24T00:51:37;2.95;;;2.80;;
12228;SDS011;6177;52.402;9.800;2023-08-24T00:54:28;4.22;;;3.95;;
12228;SDS011;6177;52.402;9.800;2023-08-24T00:57:19;3.17;;;2.97;;
12228;SDS011;6177;52.402;9.800;2023-08-24T01:00:10;5.68;;;3.60;;
12228;SDS011;6177;52.402;9.800;2023-08-24T01:03:01;2.97;;;2.75;;
12228;SDS011;6177;52.402;9.800;2023-08-24T01:05:52;2.90;;;2.80;;
12228;SDS011;6177;52.402;9.800;2023-08-24T01:08:43;3.38;;;3.08;;
12228;SDS011;6177;52.402;9.800;2023-08-24T01:11:58;3.80;;;3.15;;
12228;SDS011;6177;52.402;9.800;2023-08-24T01:18:12;3.92;;;3.05;;
12228;SDS011;6177;52.402;9.800;2023-08-24T01:21:05;2.92;;;2.83;;
12228;SDS011;6177;52.402;9.800;2023-08-24T01:24:04;3.55;;;3.35;;
12228;SDS011;6177;52.402;9.800;2023-08-24T01:27:01;3.65;;;3.35;;
12228;SDS011;6177;52.402;9.800;2023-08-24T01:29:51;3.42;;;3.22;;
12228;SDS011;6177;52.402;9.800;2023-08-24T01:32:42;4.43;;;4.03;;
12228;SDS011;6177;52.402;9.800;2023-08-24T01:35:33;3.63;;;3.40;;
12228;SDS011;6177;52.402;9.800;2023-08-24T01:38:25;3.20;;;3.00;;
12228;SDS011;6177;52.402;9.800;2023-08-24T01:41:22;3.40;;;3.17;;
12228;SDS011;6177;52.402;9.800;2023-08-24T01:44:16;3.70;;;3.50;;
12228;SDS011;6177;52.402;9.800;2023-08-24T01:47:10;3.70;;;3.50;;
12228;SDS011;6177;52.402;9.800;2023-08-24T01:50:02;3.35;;;3.15;;
12228;SDS011;6177;52.402;9.800;2023-08-24T01:52:53;3.75;;;3.55;;
12228;SDS011;6177;52.402;9.800;2023-08-24T01:55:45;3.17;;;2.97;;
12228;SDS011;6177;52.402;9.800;2023-08-24T01:58:37;3.72;;;3.42;;
12228;SDS011;6177;52.402;9.800;2023-08-24T02:01:28;3.53;;;3.20;;
12228;SDS011;6177;52.402;9.800;2023-08-24T02:04:18;3.50;;;3.30;;
12228;SDS011;6177;52.402;9.800;2023-08-24T02:07:09;3.78;;;3.47;;
12228;SDS011;6177;52.402;9.800;2023-08-24T02:10:01;4.57;;;3.90;;
12228;SDS011;6177;52.402;9.800;2023-08-24T02:12:52;4.60;;;4.30;;
12228;SDS011;6177;52.402;9.800;2023-08-24T02:15:43;6.78;;;4.82;;
12228;SDS011;6177;52.402;9.800;2023-08-24T02:18:35;4.75;;;4.35;;
12228;SDS011;6177;52.402;9.800;2023-08-24T02:21:25;4.50;;;4.10;;
12228;SDS011;6177;52.402;9.800;2023-08-24T02:24:16;4.45;;;4.25;;
12228;SDS011;6177;52.402;9.800;2023-08-24T02:27:08;4.55;;;4.13;;
12228;SDS011;6177;52.402;9.800;2023-08-24T02:29:58;5.95;;;4.80;;
12228;SDS011;6177;52.402;9.800;2023-08-24T02:32:49;4.25;;;3.95;;
12228;SDS011;6177;52.402;9.800;2023-08-24T02:35:40;4.68;;;4.25;;
12228;SDS011;6177;52.402;9.800;2023-08-24T02:38:31;4.68;;;4.35;;
12228;SDS011;6177;52.402;9.800;2023-08-24T02:41:23;4.15;;;3.85;;
12228;SDS011;6177;52.402;9.800;2023-08-24T02:44:15;5.10;;;4.47;;
12228;SDS011;6177;52.402;9.800;2023-08-24T02:47:07;4.45;;;4.05;;
12228;SDS011;6177;52.402;9.800;2023-08-24T02:49:58;3.83;;;3.65;;
12228;SDS011;6177;52.402;9.800;2023-08-24T02:52:49;6.78;;;4.32;;
12228;SDS011;6177;52.402;9.800;2023-08-24T02:55:42;4.28;;;3.97;;
12228;SDS011;6177;52.402;9.800;2023-08-24T02:58:34;4.10;;;3.90;;
12228;SDS011;6177;52.402;9.800;2023-08-24T03:01:25;4.43;;;4.13;;
12228;SDS011;6177;52.402;9.800;2023-08-24T03:04:16;5.95;;;4.18;;
12228;SDS011;6177;52.402;9.800;2023-08-24T03:07:07;4.05;;;3.65;;
12228;SDS011;6177;52.402;9.800;2023-08-24T03:10:01;4.30;;;4.10;;
12228;SDS011;6177;52.402;9.800;2023-08-24T03:12:52;3.83;;;3.53;;
12228;SDS011;6177;52.402;9.800;2023-08-24T03:15:42;3.47;;;3.33;;
12228;SDS011;6177;52.402;9.800;2023-08-24T03:18:33;4.03;;;3.83;;
12228;SDS011;6177;52.402;9.800;2023-08-24T03:21:26;3.88;;;3.67;;
12228;SDS011;6177;52.402;9.800;2023-08-24T03:24:17;3.97;;;3.67;;
12228;SDS011;6177;52.402;9.800;2023-08-24T03:27:08;5.95;;;3.95;;
12228;SDS011;6177;52.402;9.800;2023-08-24T03:29:59;4.20;;;3.90;;
12228;SDS011;6177;52.402;9.800;2023-08-24T03:32:50;4.15;;;3.90;;
12228;SDS011;6177;52.402;9.800;2023-08-24T03:35:41;4.45;;;3.80;;
12228;SDS011;6177;52.402;9.800;2023-08-24T03:38:32;4.03;;;3.83;;
12228;SDS011;6177;52.402;9.800;2023-08-24T03:41:22;4.50;;;4.13;;
12228;SDS011;6177;52.402;9.800;2023-08-24T03:44:13;4.32;;;4.03;;
12228;SDS011;6177;52.402;9.800;2023-08-24T03:47:04;4.75;;;4.35;;
12228;SDS011;6177;52.402;9.800;2023-08-24T03:49:55;4.20;;;4.00;;
12228;SDS011;6177;52.402;9.800;2023-08-24T03:52:47;4.13;;;3.95;;
12228;SDS011;6177;52.402;9.800;2023-08-24T03:55:40;4.10;;;3.70;;
12228;SDS011;6177;52.402;9.800;2023-08-24T03:58:30;4.82;;;4.43;;
12228;SDS011;6177;52.402;9.800;2023-08-24T04:01:21;6.60;;;3.88;;
12228;SDS011;6177;52.402;9.800;2023-08-24T04:04:13;4.57;;;4.22;;
12228;SDS011;6177;52.402;9.800;2023-08-24T04:07:04;4.25;;;3.95;;
12228;SDS011;6177;52.402;9.800;2023-08-24T04:09:55;4.30;;;4.00;;
12228;SDS011;6177;52.402;9.800;2023-08-24T04:12:47;5.00;;;4.60;;
12228;SDS011;6177;52.402;9.800;2023-08-24T04:15:38;5.07;;;4.78;;
12228;SDS011;6177;52.402;9.800;2023-08-24T04:18:29;5.60;;;5.10;;
12228;SDS011;6177;52.402;9.800;2023-08-24T04:21:20;5.28;;;4.90;;
12228;SDS011;6177;52.402;9.800;2023-08-24T04:24:11;4.90;;;4.55;;
12228;SDS011;6177;52.402;9.800;2023-08-24T04:27:02;4.22;;;3.92;;
12228;SDS011;6177;52.402;9.800;2023-08-24T04:29:52;4.75;;;4.30;;
12228;SDS011;6177;52.402;9.800;2023-08-24T04:32:43;4.30;;;4.07;;
12228;SDS011;6177;52.402;9.800;2023-08-24T04:35:34;4.57;;;4.28;;
12228;SDS011;6177;52.402;9.800;2023-08-24T04:38:25;4.55;;;4.35;;
12228;SDS011;6177;52.402;9.800;2023-08-24T04:41:16;4.15;;;4.05;;
12228;SDS011;6177;52.402;9.800;2023-08-24T04:44:08;4.40;;;4.13;;
12228;SDS011;6177;52.402;9.800;2023-08-24T04:46:58;4.85;;;4.03;;
12228;SDS011;6177;52.402;9.800;2023-08-24T04:49:50;4.25;;;3.95;;
12228;SDS011;6177;52.402;9.800;2023-08-24T04:52:41;4.30;;;4.00;;
12228;SDS011;6177;52.402;9.800;2023-08-24T04:55:32;5.28;;;4.97;;
12228;SDS011;6177;52.402;9.800;2023-08-24T04:58:23;5.18;;;4.80;;
12228;SDS011;6177;52.402;9.800;2023-08-24T05:01:14;6.43;;;5.55;;
12228;SDS011;6177;52.402;9.800;2023-08-24T05:04:05;5.45;;;5.15;;
12228;SDS011;6177;52.402;9.800;2023-08-24T05:06:56;6.22;;;5.75;;
12228;SDS011;6177;52.402;9.800;2023-08-24T05:09:47;5.72;;;5.32;;
12228;SDS011;6177;52.402;9.800;2023-08-24T05:12:39;5.78;;;5.30;;
12228;SDS011;6177;52.402;9.800;2023-08-24T05:15:30;5.95;;;5.43;;
12228;SDS011;6177;52.402;9.800;2023-08-24T05:18:20;5.28;;;4.95;;
12228;SDS011;6177;52.402;9.800;2023-08-24T05:21:12;6.28;;;5.93;;
12228;SDS011;6177;52.402;9.800;2023-08-24T05:24:03;6.25;;;5.78;;
12228;SDS011;6177;52.402;9.800;2023-08-24T05:26:54;6.25;;;5.43;;
12228;SDS011;6177;52.402;9.800;2023-08-24T05:29:46;6.75;;;6.05;;
12228;SDS011;6177;52.402;9.800;2023-08-24T05:32:36;5.80;;;5.45;;
12228;SDS011;6177;52.402;9.800;2023-08-24T05:35:28;6.18;;;5.57;;
12228;SDS011;6177;52.402;9.800;2023-08-24T05:38:19;5.28;;;4.97;;
12228;SDS011;6177;52.402;9.800;2023-08-24T05:41:10;5.53;;;5.13;;
12228;SDS011;6177;52.402;9.800;2023-08-24T05:44:01;6.40;;;5.85;;
12228;SDS011;6177;52.402;9.800;2023-08-24T05:46:52;5.75;;;5.35;;
12228;SDS011;6177;52.402;9.800;2023-08-24T05:49:43;5.70;;;5.30;;
12228;SDS011;6177;52.402;9.800;2023-08-24T05:52:34;5.20;;;4.72;;
12228;SDS011;6177;52.402;9.800;2023-08-24T05:55:25;5.40;;;5.10;;
12228;SDS011;6177;52.402;9.800;2023-08-24T05:58:16;5.90;;;5.38;;
12228;SDS011;6177;52.402;9.800;2023-08-24T06:01:07;6.10;;;5.53;;
12228;SDS011;6177;52.402;9.800;2023-08-24T06:03:57;6.20;;;5.57;;
12228;SDS011;6177;52.402;9.800;2023-08-24T06:06:49;6.03;;;4.95;;
12228;SDS011;6177;52.402;9.800;2023-08-24T06:09:40;6.22;;;5.72;;
12228;SDS011;6177;52.402;9.800;2023-08-24T06:12:31;5.72;;;5.32;;
12228;SDS011;6177;52.402;9.800;2023-08-24T06:15:22;5.45;;;5.22;;
12228;SDS011;6177;52.402;9.800;2023-08-24T06:18:14;5.55;;;5.05;;
12228;SDS011;6177;52.402;9.800;2023-08-24T06:21:05;6.07;;;5.60;;
12228;SDS011;6177;52.402;9.800;2023-08-24T06:23:58;5.65;;;5.20;;
12228;SDS011;6177;52.402;9.800;2023-08-24T06:26:51;6.50;;;6.03;;
12228;SDS011;6177;52.402;9.800;2023-08-24T06:29:42;5.00;;;4.60;;
12228;SDS011;6177;52.402;9.800;2023-08-24T06:32:33;5.40;;;4.97;;
12228;SDS011;6177;52.402;9.800;2023-08-24T06:35:24;5.95;;;5.45;;
12228;SDS011;6177;52.402;9.800;2023-08-24T06:38:15;6.63;;;5.25;;
12228;SDS011;6177;52.402;9.800;2023-08-24T06:41:06;5.63;;;5.05;;
12228;SDS011;6177;52.402;9.800;2023-08-24T06:43:58;6.05;;;5.53;;
12228;SDS011;6177;52.402;9.800;2023-08-24T06:46:50;4.93;;;4.72;;
12228;SDS011;6177;52.402;9.800;2023-08-24T06:49:41;7.45;;;6.07;;
12228;SDS011;6177;52.402;9.800;2023-08-24T06:52:32;6.82;;;6.22;;
12228;SDS011;6177;52.402;9.800;2023-08-24T06:55:23;6.10;;;5.60;;
12228;SDS011;6177;52.402;9.800;2023-08-24T06:58:14;6.43;;;6.03;;
12228;SDS011;6177;52.402;9.800;2023-08-24T07:01:05;6.10;;;5.50;;
12228;SDS011;6177;52.402;9.800;2023-08-24T07:03:56;6.90;;;6.30;;
12228;SDS011;6177;52.402;9.800;2023-08-24T07:06:47;6.32;;;5.82;;
12228;SDS011;6177;52.402;9.800;2023-08-24T07:09:39;6.72;;;6.13;;
12228;SDS011;6177;52.402;9.800;2023-08-24T07:12:30;5.88;;;5.45;;
12228;SDS011;6177;52.402;9.800;2023-08-24T07:15:21;6.15;;;5.20;;
12228;SDS011;6177;52.402;9.800;2023-08-24T07:18:12;6.15;;;5.65;;
12228;SDS011;6177;52.402;9.800;2023-08-24T07:21:03;4.90;;;4.60;;
12228;SDS011;6177;52.402;9.800;2023-08-24T07:23:54;4.75;;;4.45;;
12228;SDS011;6177;52.402;9.800;2023-08-24T07:26:45;5.43;;;5.03;;
12228;SDS011;6177;52.402;9.800;2023-08-24T07:29:36;6.03;;;4.80;;
12228;SDS011;6177;52.402;9.800;2023-08-24T07:32:27;5.65;;;5.25;;
12228;SDS011;6177;52.402;9.800;2023-08-24T07:35:19;5.43;;;5.03;;
12228;SDS011;6177;52.402;9.800;2023-08-24T07:38:11;5.90;;;5.47;;
12228;SDS011;6177;52.402;9.800;2023-08-24T07:41:02;5.18;;;4.80;;
12228;SDS011;6177;52.402;9.800;2023-08-24T07:43:53;4.80;;;4.28;;
12228;SDS011;6177;52.402;9.800;2023-08-24T07:46:44;6.03;;;5.30;;
12228;SDS011;6177;52.402;9.800;2023-08-24T07:49:35;5.43;;;4.93;;
12228;SDS011;6177;52.402;9.800;2023-08-24T07:52:26;6.00;;;5.60;;
12228;SDS011;6177;52.402;9.800;2023-08-24T07:55:19;4.53;;;4.28;;
12228;SDS011;6177;52.402;9.800;2023-08-24T07:58:09;6.30;;;5.13;;
12228;SDS011;6177;52.402;9.800;2023-08-24T08:01:00;5.57;;;5.07;;
12228;SDS011;6177;52.402;9.800;2023-08-24T08:03:51;5.72;;;5.30;;
12228;SDS011;6177;52.402;9.800;2023-08-24T08:06:42;4.55;;;4.30;;
12228;SDS011;6177;52.402;9.800;2023-08-24T08:09:33;5.25;;;4.95;;
12228;SDS011;6177;52.402;9.800;2023-08-24T08:12:24;5.40;;;5.00;;
12228;SDS011;6177;52.402;9.800;2023-08-24T08:15:15;5.13;;;4.63;;
12228;SDS011;6177;52.402;9.800;2023-08-24T08:18:06;4.97;;;4.70;;
12228;SDS011;6177;52.402;9.800;2023-08-24T08:20:57;5.47;;;4.80;;
12228;SDS011;6177;52.402;9.800;2023-08-24T08:23:48;4.97;;;4.53;;
12228;SDS011;6177;52.402;9.800;2023-08-24T08:26:39;4.38;;;4.00;;
12228;SDS011;6177;52.402;9.800;2023-08-24T08:29:30;4.22;;;3.90;;
12228;SDS011;6177;52.402;9.800;2023-08-24T08:32:21;6.65;;;4.30;;
12228;SDS011;6177;52.402;9.800;2023-08-24T08:35:12;4.25;;;3.83;;
12228;SDS011;6177;52.402;9.800;2023-08-24T08:38:03;5.10;;;4.45;;
12228;SDS011;6177;52.402;9.800;2023-08-24T08:40:54;4.13;;;3.78;;
12228;SDS011;6177;52.402;9.800;2023-08-24T08:43:45;3.60;;;3.40;;
12228;SDS011;6177;52.402;9.800;2023-08-24T08:46:36;4.25;;;3.95;;
12228;SDS011;6177;52.402;9.800;2023-08-24T08:49:29;3.90;;;3.60;;
12228;SDS011;6177;52.402;9.800;2023-08-24T08:52:21;4.43;;;3.75;;
12228;SDS011;6177;52.402;9.800;2023-08-24T08:55:12;4.00;;;3.65;;
12228;SDS011;6177;52.402;9.800;2023-08-24T08:58:03;3.60;;;3.45;;
12228;SDS011;6177;52.402;9.800;2023-08-24T09:00:54;2.97;;;2.88;;
12228;SDS011;6177;52.402;9.800;2023-08-24T09:03:45;3.25;;;2.97;;
12228;SDS011;6177;52.402;9.800;2023-08-24T09:06:37;2.83;;;2.70;;
12228;SDS011;6177;52.402;9.800;2023-08-24T09:09:27;3.53;;;3.00;;
12228;SDS011;6177;52.402;9.800;2023-08-24T09:12:17;2.35;;;2.25;;
12228;SDS011;6177;52.402;9.800;2023-08-24T09:15:08;2.90;;;2.70;;
12228;SDS011;6177;52.402;9.800;2023-08-24T09:17:59;2.70;;;2.60;;
12228;SDS011;6177;52.402;9.800;2023-08-24T09:20:51;4.38;;;2.97;;
12228;SDS011;6177;52.402;9.800;2023-08-24T09:23:46;4.00;;;3.70;;
12228;SDS011;6177;52.402;9.800;2023-08-24T09:26:42;3.70;;;3.50;;
12228;SDS011;6177;52.402;9.800;2023-08-24T09:29:36;3.60;;;3.40;;
12228;SDS011;6177;52.402;9.800;2023-08-24T09:32:28;3.97;;;3.67;;
12228;SDS011;6177;52.402;9.800;2023-08-24T09:35:19;3.42;;;3.22;;
12228;SDS011;6177;52.402;9.800;2023-08-24T09:38:17;3.30;;;3.20;;
12228;SDS011;6177;52.402;9.800;2023-08-24T09:41:09;3.70;;;3.38;;
12228;SDS011;6177;52.402;9.800;2023-08-24T09:44:03;3.50;;;3.17;;
12228;SDS011;6177;52.402;9.800;2023-08-24T09:46:54;3.17;;;2.88;;
12228;SDS011;6177;52.402;9.800;2023-08-24T09:49:45;3.40;;;3.20;;
12228;SDS011;6177;52.402;9.800;2023-08-24T09:52:37;3.78;;;3.55;;
12228;SDS011;6177;52.402;9.800;2023-08-24T09:55:29;3.40;;;3.20;;
12228;SDS011;6177;52.402;9.800;2023-08-24T09:58:22;3.28;;;3.03;;
12228;SDS011;6177;52.402;9.800;2023-08-24T10:01:14;3.97;;;2.95;;
12228;SDS011;6177;52.402;9.800;2023-08-24T10:04:05;2.92;;;2.80;;
12228;SDS011;6177;52.402;9.800;2023-08-24T10:06:59;3.22;;;2.97;;
12228;SDS011;6177;52.402;9.800;2023-08-24T10:09:58;3.33;;;3.05;;
12228;SDS011;6177;52.402;9.800;2023-08-24T10:12:59;5.72;;;3.50;;
12228;SDS011;6177;52.402;9.800;2023-08-24T10:15:53;3.45;;;3.20;;
12228;SDS011;6177;52.402;9.800;2023-08-24T10:18:44;5.13;;;3.80;;
12228;SDS011;6177;52.402;9.800;2023-08-24T10:21:36;5.22;;;3.72;;
12228;SDS011;6177;52.402;9.800;2023-08-24T10:24:27;5.22;;;4.80;;
12228;SDS011;6177;52.402;9.800;2023-08-24T10:27:19;6.45;;;4.50;;
12228;SDS011;6177;52.402;9.800;2023-08-24T10:30:13;11.45;;;4.68;;
12228;SDS011;6177;52.402;9.800;2023-08-24T10:33:05;8.65;;;5.50;;
12228;SDS011;6177;52.402;9.800;2023-08-24T10:35:56;3.60;;;3.30;;
12228;SDS011;6177;52.402;9.800;2023-08-24T10:38:47;4.97;;;3.38;;
12228;SDS011;6177;52.402;9.800;2023-08-24T10:41:51;3.88;;;3.42;;
12228;SDS011;6177;52.402;9.800;2023-08-24T10:44:46;3.65;;;3.28;;
12228;SDS011;6177;52.402;9.800;2023-08-24T10:47:44;3.75;;;3.45;;
12228;SDS011;6177;52.402;9.800;2023-08-24T10:50:38;6.32;;;3.30;;
12228;SDS011;6177;52.402;9.800;2023-08-24T10:56:54;4.25;;;3.03;;
12228;SDS011;6177;52.402;9.800;2023-08-24T11:00:01;7.72;;;3.30;;
12228;SDS011;6177;52.402;9.800;2023-08-24T11:02:56;4.10;;;2.90;;
12228;SDS011;6177;52.402;9.800;2023-08-24T11:05:51;8.52;;;2.97;;
12228;SDS011;6177;52.402;9.800;2023-08-24T11:08:48;12.77;;;3.67;;
12228;SDS011;6177;52.402;9.800;2023-08-24T11:11:39;4.22;;;3.42;;
12228;SDS011;6177;52.402;9.800;2023-08-24T11:14:31;6.90;;;3.30;;
12228;SDS011;6177;52.402;9.800;2023-08-24T11:17:24;8.00;;;4.20;;
12228;SDS011;6177;52.402;9.800;2023-08-24T11:20:15;4.90;;;4.13;;
12228;SDS011;6177;52.402;9.800;2023-08-24T11:23:06;7.03;;;3.53;;
12228;SDS011;6177;52.402;9.800;2023-08-24T11:25:58;5.25;;;4.82;;
12228;SDS011;6177;52.402;9.800;2023-08-24T11:28:52;4.85;;;3.60;;
12228;SDS011;6177;52.402;9.800;2023-08-24T11:31:43;4.97;;;3.35;;
12228;SDS011;6177;52.402;9.800;2023-08-24T11:34:34;3.20;;;3.00;;
12228;SDS011;6177;52.402;9.800;2023-08-24T11:37:25;3.95;;;3.60;;
12228;SDS011;6177;52.402;9.800;2023-08-24T11:40:16;4.30;;;3.55;;
12228;SDS011;6177;52.402;9.800;2023-08-24T11:43:07;3.20;;;2.90;;
12228;SDS011;6177;52.402;9.800;2023-08-24T11:45:58;3.70;;;3.40;;
12228;SDS011;6177;52.402;9.800;2023-08-24T11:48:48;3.22;;;3.03;;
12228;SDS011;6177;52.402;9.800;2023-08-24T11:51:38;2.80;;;2.60;;
12228;SDS011;6177;52.402;9.800;2023-08-24T11:54:31;2.85;;;2.65;;
12228;SDS011;6177;52.402;9.800;2023-08-24T11:57:23;3.15;;;2.92;;
12228;SDS011;6177;52.402;9.800;2023-08-24T12:00:17;3.90;;;2.83;;
12228;SDS011;6177;52.402;9.800;2023-08-24T12:03:09;4.53;;;2.92;;
12228;SDS011;6177;52.402;9.800;2023-08-24T12:06:00;2.42;;;2.33;;
12228;SDS011;6177;52.402;9.800;2023-08-24T12:08:52;1.95;;;1.88;;
12228;SDS011;6177;52.402;9.800;2023-08-24T12:11:43;3.22;;;2.05;;
12228;SDS011;6177;52.402;9.800;2023-08-24T12:14:44;2.70;;;2.50;;
12228;SDS011;6177;52.402;9.800;2023-08-24T12:17:44;2.83;;;2.63;;
12228;SDS011;6177;52.402;9.800;2023-08-24T12:20:35;3.45;;;2.10;;
12228;SDS011;6177;52.402;9.800;2023-08-24T12:23:26;2.08;;;1.98;;
12228;SDS011;6177;52.402;9.800;2023-08-24T12:26:17;4.85;;;2.05;;
12228;SDS011;6177;52.402;9.800;2023-08-24T12:29:09;4.30;;;2.20;;
12228;SDS011;6177;52.402;9.800;2023-08-24T12:32:00;2.97;;;2.08;;
12228;SDS011;6177;52.402;9.800;2023-08-24T12:34:51;4.70;;;2.55;;
12228;SDS011;6177;52.402;9.800;2023-08-24T12:37:45;2.75;;;1.80;;
12228;SDS011;6177;52.402;9.800;2023-08-24T12:40:36;2.88;;;1.98;;
12228;SDS011;6177;52.402;9.800;2023-08-24T12:43:27;5.00;;;2.08;;
12228;SDS011;6177;52.402;9.800;2023-08-24T12:46:18;4.55;;;1.98;;
12228;SDS011;6177;52.402;9.800;2023-08-24T12:49:09;6.15;;;2.20;;
12228;SDS011;6177;52.402;9.800;2023-08-24T12:52:00;2.45;;;2.00;;
12228;SDS011;6177;52.402;9.800;2023-08-24T12:54:51;1.70;;;1.60;;
12228;SDS011;6177;52.402;9.800;2023-08-24T12:57:42;2.42;;;2.20;;
12228;SDS011;6177;52.402;9.800;2023-08-24T13:00:33;2.05;;;1.95;;
12228;SDS011;6177;52.402;9.800;2023-08-24T13:03:24;2.60;;;2.17;;
12228;SDS011;6177;52.402;9.800;2023-08-24T13:06:15;4.15;;;2.17;;
12228;SDS011;6177;52.402;9.800;2023-08-24T13:09:06;2.60;;;1.67;;
12228;SDS011;6177;52.402;9.800;2023-08-24T13:11:57;2.90;;;1.92;;
12228;SDS011;6177;52.402;9.800;2023-08-24T13:14:48;2.70;;;1.83;;
12228;SDS011;6177;52.402;9.800;2023-08-24T13:17:39;4.22;;;1.70;;
12228;SDS011;6177;52.402;9.800;2023-08-24T13:20:30;2.95;;;1.70;;
12228;SDS011;6177;52.402;9.800;2023-08-24T13:23:21;2.15;;;2.00;;
12228;SDS011;6177;52.402;9.800;2023-08-24T13:26:20;4.95;;;1.98;;
12228;SDS011;6177;52.402;9.800;2023-08-24T13:29:12;3.15;;;1.83;;
12228;SDS011;6177;52.402;9.800;2023-08-24T13:32:03;1.58;;;1.20;;
12228;SDS011;6177;52.402;9.800;2023-08-24T13:34:54;1.38;;;1.38;;
12228;SDS011;6177;52.402;9.800;2023-08-24T13:37:47;1.92;;;1.70;;
12228;SDS011;6177;52.402;9.800;2023-08-24T13:40:38;1.80;;;1.70;;
12228;SDS011;6177;52.402;9.800;2023-08-24T13:43:29;2.58;;;1.77;;
12228;SDS011;6177;52.402;9.800;2023-08-24T13:46:20;3.92;;;1.45;;
12228;SDS011;6177;52.402;9.800;2023-08-24T13:49:11;1.67;;;1.58;;
12228;SDS011;6177;52.402;9.800;2023-08-24T13:52:02;1.40;;;1.40;;
12228;SDS011;6177;52.402;9.800;2023-08-24T13:54:53;3.50;;;1.40;;
12228;SDS011;6177;52.402;9.800;2023-08-24T13:57:43;2.67;;;1.90;;
12228;SDS011;6177;52.402;9.800;2023-08-24T14:00:34;1.77;;;1.67;;
12228;SDS011;6177;52.402;9.800;2023-08-24T14:03:25;1.75;;;1.55;;
12228;SDS011;6177;52.402;9.800;2023-08-24T14:06:16;1.88;;;1.73;;
12228;SDS011;6177;52.402;9.800;2023-08-24T14:09:07;1.98;;;1.80;;
12228;SDS011;6177;52.402;9.800;2023-08-24T14:11:58;2.08;;;1.73;;
12228;SDS011;6177;52.402;9.800;2023-08-24T14:14:49;1.90;;;1.80;;
12228;SDS011;6177;52.402;9.800;2023-08-24T14:17:39;2.80;;;1.75;;
12228;SDS011;6177;52.402;9.800;2023-08-24T14:20:30;1.60;;;1.60;;
12228;SDS011;6177;52.402;9.800;2023-08-24T14:23:21;3.05;;;1.90;;
12228;SDS011;6177;52.402;9.800;2023-08-24T14:26:12;2.25;;;1.65;;
12228;SDS011;6177;52.402;9.800;2023-08-24T14:29:03;4.13;;;1.70;;
12228;SDS011;6177;52.402;9.800;2023-08-24T14:31:54;3.22;;;1.77;;
12228;SDS011;6177;52.402;9.800;2023-08-24T14:34:45;2.15;;;1.40;;
12228;SDS011;6177;52.402;9.800;2023-08-24T14:37:36;1.90;;;1.70;;
12228;SDS011;6177;52.402;9.800;2023-08-24T14:40:28;1.90;;;1.80;;
12228;SDS011;6177;52.402;9.800;2023-08-24T14:43:19;4.68;;;2.10;;
12228;SDS011;6177;52.402;9.800;2023-08-24T14:46:10;1.73;;;1.63;;
12228;SDS011;6177;52.402;9.800;2023-08-24T14:49:00;2.22;;;2.00;;
12228;SDS011;6177;52.402;9.800;2023-08-24T14:51:51;3.45;;;1.83;;
12228;SDS011;6177;52.402;9.800;2023-08-24T14:54:42;2.15;;;1.60;;
12228;SDS011;6177;52.402;9.800;2023-08-24T14:57:33;2.42;;;2.25;;
12228;SDS011;6177;52.402;9.800;2023-08-24T15:00:24;1.73;;;1.63;;
12228;SDS011;6177;52.402;9.800;2023-08-24T15:03:15;2.35;;;1.63;;
12228;SDS011;6177;52.402;9.800;2023-08-24T15:06:09;2.95;;;1.70;;
12228;SDS011;6177;52.402;9.800;2023-08-24T15:09:00;1.85;;;1.70;;
12228;SDS011;6177;52.402;9.800;2023-08-24T15:11:51;1.85;;;1.75;;
12228;SDS011;6177;52.402;9.800;2023-08-24T15:14:56;2.40;;;2.10;;
12228;SDS011;6177;52.402;9.800;2023-08-24T15:17:47;1.92;;;1.80;;
12228;SDS011;6177;52.402;9.800;2023-08-24T15:20:38;1.95;;;1.85;;
12228;SDS011;6177;52.402;9.800;2023-08-24T15:23:29;3.25;;;1.80;;
12228;SDS011;6177;52.402;9.800;2023-08-24T15:26:21;2.28;;;1.98;;
12228;SDS011;6177;52.402;9.800;2023-08-24T15:29:12;2.15;;;1.85;;
12228;SDS011;6177;52.402;9.800;2023-08-24T15:32:08;1.70;;;1.70;;
12228;SDS011;6177;52.402;9.800;2023-08-24T15:34:59;2.05;;;1.95;;
12228;SDS011;6177;52.402;9.800;2023-08-24T15:37:51;2.80;;;1.70;;
12228;SDS011;6177;52.402;9.800;2023-08-24T15:40:42;2.25;;;2.10;;
12228;SDS011;6177;52.402;9.800;2023-08-24T15:43:43;2.35;;;2.05;;
12228;SDS011;6177;52.402;9.800;2023-08-24T15:46:34;2.58;;;1.65;;
12228;SDS011;6177;52.402;9.800;2023-08-24T15:49:24;1.65;;;1.55;;
12228;SDS011;6177;52.402;9.800;2023-08-24T15:52:16;1.40;;;1.40;;
12228;SDS011;6177;52.402;9.800;2023-08-24T15:55:07;2.05;;;1.88;;
12228;SDS011;6177;52.402;9.800;2023-08-24T15:57:59;1.63;;;1.52;;
12228;SDS011;6177;52.402;9.800;2023-08-24T16:00:51;1.67;;;1.60;;
12228;SDS011;6177;52.402;9.800;2023-08-24T16:03:42;1.80;;;1.70;;
12228;SDS011;6177;52.402;9.800;2023-08-24T16:06:33;2.03;;;1.90;;
12228;SDS011;6177;52.402;9.800;2023-08-24T16:09:24;4.32;;;2.05;;
12228;SDS011;6177;52.402;9.800;2023-08-24T16:12:15;1.90;;;1.80;;
12228;SDS011;6177;52.402;9.800;2023-08-24T16:15:06;2.03;;;1.92;;
12228;SDS011;6177;52.402;9.800;2023-08-24T16:17:57;1.63;;;1.58;;
12228;SDS011;6177;52.402;9.800;2023-08-24T16:20:48;1.70;;;1.70;;
12228;SDS011;6177;52.402;9.800;2023-08-24T16:23:39;2.50;;;2.40;;
12228;SDS011;6177;52.402;9.800;2023-08-24T16:26:30;2.55;;;2.25;;
12228;SDS011;6177;52.402;9.800;2023-08-24T16:29:20;2.60;;;2.50;;
12228;SDS011;6177;52.402;9.800;2023-08-24T16:32:11;2.38;;;2.17;;
12228;SDS011;6177;52.402;9.800;2023-08-24T16:35:02;3.10;;;2.35;;
12228;SDS011;6177;52.402;9.800;2023-08-24T16:37:53;3.15;;;2.53;;
12228;SDS011;6177;52.402;9.800;2023-08-24T16:40:43;2.50;;;2.30;;
12228;SDS011;6177;52.402;9.800;2023-08-24T16:43:36;2.75;;;2.55;;
12228;SDS011;6177;52.402;9.800;2023-08-24T16:46:27;2.03;;;1.95;;
12228;SDS011;6177;52.402;9.800;2023-08-24T16:49:18;5.18;;;2.13;;
12228;SDS011;6177;52.402;9.800;2023-08-24T16:52:09;3.35;;;2.03;;
12228;SDS011;6177;52.402;9.800;2023-08-24T16:55:00;2.60;;;2.40;;
12228;SDS011;6177;52.402;9.800;2023-08-24T16:57:51;2.60;;;2.40;;
12228;SDS011;6177;52.402;9.800;2023-08-24T17:00:42;2.55;;;2.35;;
12228;SDS011;6177;52.402;9.800;2023-08-24T17:03:33;2.10;;;2.00;;
12228;SDS011;6177;52.402;9.800;2023-08-24T17:06:24;2.80;;;2.10;;
12228;SDS011;6177;52.402;9.800;2023-08-24T17:09:15;2.35;;;2.22;;
12228;SDS011;6177;52.402;9.800;2023-08-24T17:12:06;2.92;;;2.70;;
12228;SDS011;6177;52.402;9.800;2023-08-24T17:14:57;2.13;;;1.95;;
12228;SDS011;6177;52.402;9.800;2023-08-24T17:17:47;2.35;;;2.17;;
12228;SDS011;6177;52.402;9.800;2023-08-24T17:20:38;2.15;;;1.98;;
12228;SDS011;6177;52.402;9.800;2023-08-24T17:23:29;2.15;;;1.80;;
12228;SDS011;6177;52.402;9.800;2023-08-24T17:26:20;2.40;;;2.30;;
12228;SDS011;6177;52.402;9.800;2023-08-24T17:29:13;2.80;;;2.40;;
12228;SDS011;6177;52.402;9.800;2023-08-24T17:32:04;3.53;;;2.00;;
12228;SDS011;6177;52.402;9.800;2023-08-24T17:34:55;2.63;;;1.88;;